Time;durP1;ratioP1;P1;durP2;ratioP2;P2;SDS_P1;SDS_P2;PMS_P1;PMS_P2;Temp;Humidity;BMP_temperature;BMP_pressure;BME280_temperature;BME280_humidity;BME280_pressure;Samples;Min_cycle;Max_cycle;Signal;HPM_P1;HPM_P2
2023/05/04 00:01:21;;;;;;;;;6.00;5.50;;;;;18.74;41.48;101199.03;5051949;28;45233;-63
2023/05/04 00:03:46;;;;;;;;;8.25;7.75;;;;;18.71;41.76;101202.69;5040993;28;45234;-64
2023/05/04 00:06:11;;;;;;;;;7.00;6.00;;;;;18.72;41.23;101198.25;5041119;28;45283;-64
2023/05/04 00:08:37;;;;;;;;;7.25;7.00;;;;;18.71;41.51;101196.50;5040757;28;45242;-64
2023/05/04 00:11:02;;;;;;;;;9.25;7.00;;;;;18.65;41.45;101184.31;5023213;28;45332;-63
2023/05/04 00:13:27;;;;;;;;;7.00;6.00;;;;;18.66;41.45;101180.72;5040756;28;45250;-64
2023/05/04 00:15:53;;;;;;;;;9.25;9.00;;;;;18.64;41.47;101182.56;5040635;28;45324;-64
2023/05/04 00:18:18;;;;;;;;;9.00;8.00;;;;;18.59;41.72;101179.22;5040761;28;45320;-64
2023/05/04 00:20:43;;;;;;;;;7.00;7.00;;;;;18.59;41.44;101189.88;5049251;28;47883;-64
2023/05/04 00:23:08;;;;;;;;;7.00;7.00;;;;;18.54;41.77;101171.44;5060845;28;45350;-64
2023/05/04 00:25:34;;;;;;;;;6.00;6.00;;;;;18.51;41.71;101175.09;5060760;28;50207;-64
2023/05/04 00:27:59;;;;;;;;;6.50;6.25;;;;;18.48;41.79;101167.22;5060596;28;45455;-64
2023/05/04 00:30:24;;;;;;;;;8.25;6.00;;;;;18.44;41.82;101160.31;5042482;28;46166;-64
2023/05/04 00:32:50;;;;;;;;;7.00;7.00;;;;;18.43;42.10;101161.22;5040890;28;45565;-64
2023/05/04 00:35:15;;;;;;;;;7.00;6.00;;;;;18.35;42.10;101150.91;5040656;28;45365;-63
2023/05/04 00:37:42;;;;;;;;;7.50;7.50;;;;;18.36;41.94;101146.44;5040012;28;45383;-63
2023/05/04 00:40:08;;;;;;;;;7.75;7.00;;;;;18.33;41.97;101157.22;5034986;28;45354;-63
2023/05/04 00:42:34;;;;;;;;;11.25;7.25;;;;;18.29;41.61;101152.97;5027659;28;45235;-64
2023/05/04 00:44:59;;;;;;;;;8.25;8.25;;;;;18.27;42.18;101158.31;5040197;28;45925;-64
2023/05/04 00:47:25;;;;;;;;;8.50;7.00;;;;;18.24;42.10;101157.56;5039608;28;45405;-64
2023/05/04 00:49:51;;;;;;;;;7.75;7.50;;;;;18.21;42.44;101160.38;5040980;28;45356;-63
2023/05/04 00:52:18;;;;;;;;;9.50;9.50;;;;;18.18;42.24;101153.38;5040180;28;45245;-63
2023/05/04 00:54:45;;;;;;;;;10.00;9.00;;;;;18.13;42.46;101148.22;5040298;28;45241;-63
2023/05/04 00:57:11;;;;;;;;;9.00;9.00;;;;;18.12;42.41;101142.97;5040094;28;45528;-64
2023/05/04 00:59:36;;;;;;;;;8.00;7.75;;;;;18.07;42.24;101139.63;5029765;28;45450;-64
2023/05/04 01:02:02;;;;;;;;;7.75;7.25;;;;;18.01;42.45;101132.75;5045381;28;45516;-64
2023/05/04 01:04:27;;;;;;;;;8.00;6.00;;;;;18.03;42.21;101142.41;5040251;28;46056;-64
2023/05/04 01:07:16;;;;;;;;;9.50;8.75;;;;;17.99;42.82;101139.94;5040000;28;45423;-63
2023/05/04 01:09:51;;;;;;;;;9.25;8.50;;;;;17.96;42.58;101135.59;5040195;28;45289;-64
2023/05/04 01:12:26;;;;;;;;;10.75;7.75;;;;;17.94;42.56;101141.91;5039864;28;45226;-64
2023/05/04 01:14:53;;;;;;;;;7.25;7.25;;;;;17.91;42.42;101139.31;5039679;28;46119;-64
2023/05/04 01:17:19;;;;;;;;;9.25;8.25;;;;;17.87;42.63;101128.81;5039917;28;45526;-64
2023/05/04 01:19:44;;;;;;;;;11.25;9.50;;;;;17.86;42.77;101131.50;5040547;28;45370;-64
2023/05/04 01:22:09;;;;;;;;;7.00;7.00;;;;;17.83;42.69;101121.88;5041875;28;45433;-63
2023/05/04 01:24:35;;;;;;;;;8.75;8.75;;;;;17.77;42.70;101122.09;5059766;28;46198;-64
2023/05/04 01:27:25;;;;;;;;;11.50;9.50;;;;;17.79;42.66;101124.72;5060049;28;45530;-64
2023/05/04 01:30:01;;;;;;;;;9.50;9.50;;;;;17.74;42.70;101119.56;5059849;28;45229;-64
2023/05/04 01:32:31;;;;;;;;;8.00;8.00;;;;;17.71;42.91;101117.06;5041639;28;45473;-64
2023/05/04 01:34:57;;;;;;;;;8.75;8.75;;;;;17.68;42.75;101120.69;5059588;28;45435;-64
2023/05/04 01:37:22;;;;;;;;;9.00;7.25;;;;;17.64;42.99;101116.38;5059690;28;45436;-64
2023/05/04 01:39:47;;;;;;;;;9.25;8.25;;;;;17.61;42.81;101112.97;5041671;28;45836;-64
2023/05/04 01:42:13;;;;;;;;;7.50;7.00;;;;;17.61;43.25;101110.31;5041751;28;45339;-64
2023/05/04 01:44:39;;;;;;;;;12.25;11.25;;;;;17.59;43.07;101109.53;5059280;28;45202;-64
2023/05/04 01:47:04;;;;;;;;;10.25;8.00;;;;;17.55;43.05;101101.66;5059737;28;45391;-64
2023/05/04 01:49:30;;;;;;;;;10.75;10.75;;;;;17.53;43.08;101092.91;5041695;28;45356;-64
2023/05/04 01:51:55;;;;;;;;;9.00;9.00;;;;;17.52;43.11;101096.47;5059777;28;45240;-64
2023/05/04 01:54:20;;;;;;;;;11.00;9.00;;;;;17.50;43.24;101103.63;5040881;28;55110;-64
2023/05/04 01:56:46;;;;;;;;;11.00;11.00;;;;;17.49;43.34;101101.88;5059596;28;45399;-64
2023/05/04 01:59:11;;;;;;;;;8.25;7.75;;;;;17.47;43.28;101097.56;5060874;28;45427;-64
2023/05/04 02:01:36;;;;;;;;;12.00;9.00;;;;;17.43;43.03;101101.25;5041771;28;45695;-64
2023/05/04 02:04:02;;;;;;;;;9.50;8.25;;;;;17.42;43.40;101099.53;5042760;28;46047;-64
2023/05/04 02:06:27;;;;;;;;;11.75;10.50;;;;;17.42;43.32;101100.41;5042923;28;45150;-64
2023/05/04 02:08:52;;;;;;;;;9.50;8.25;;;;;17.38;43.38;101096.09;5042931;28;45438;-64
2023/05/04 02:11:18;;;;;;;;;9.25;9.00;;;;;17.37;43.53;101089.06;5042934;28;45447;-64
2023/05/04 02:13:43;;;;;;;;;9.50;9.50;;;;;17.34;43.75;101097.16;5042468;28;45346;-64
2023/05/04 02:16:09;;;;;;;;;9.50;8.75;;;;;17.28;43.57;101085.00;5042579;28;51345;-64
2023/05/04 02:18:34;;;;;;;;;12.00;10.25;;;;;17.28;43.57;101090.28;5042567;28;45585;-64
2023/05/04 02:21:00;;;;;;;;;11.25;9.00;;;;;17.29;43.45;101091.16;5053748;28;45636;-64
2023/05/04 02:23:25;;;;;;;;;11.50;9.75;;;;;17.24;43.46;101085.16;5062621;28;45928;-64
2023/05/04 02:25:53;;;;;;;;;8.25;8.25;;;;;17.23;43.48;101084.25;5062633;28;45446;-64
2023/05/04 02:28:18;;;;;;;;;13.50;13.50;;;;;17.20;43.58;101090.56;5044850;28;45274;-64
2023/05/04 02:30:43;;;;;;;;;13.00;11.00;;;;;17.20;43.76;101079.06;5062532;28;45369;-64
2023/05/04 02:33:09;;;;;;;;;7.75;7.75;;;;;17.19;43.96;101077.34;5062466;28;45391;-64
2023/05/04 02:35:34;;;;;;;;;12.75;9.25;;;;;17.17;43.85;101077.41;5062723;28;45222;-64
2023/05/04 02:38:00;;;;;;;;;11.50;10.25;;;;;17.14;43.79;101079.28;5062721;28;45224;-64
2023/05/04 02:40:25;;;;;;;;;12.75;10.75;;;;;17.09;43.75;101074.13;5062489;28;45497;-64
2023/05/04 02:42:51;;;;;;;;;12.50;12.00;;;;;17.09;44.01;101074.13;5062416;28;45297;-64
2023/05/04 02:45:16;;;;;;;;;10.50;10.50;;;;;17.10;44.20;101072.38;5044243;28;45794;-64
2023/05/04 02:47:42;;;;;;;;;10.25;10.25;;;;;17.07;43.93;101070.69;5044400;28;45502;-64
2023/05/04 02:50:07;;;;;;;;;10.75;10.75;;;;;17.05;44.08;101072.53;5044384;28;45871;-64
2023/05/04 02:52:33;;;;;;;;;11.75;11.75;;;;;17.03;44.02;101074.34;5062146;28;46418;-64
2023/05/04 02:54:59;;;;;;;;;10.00;8.75;;;;;16.98;44.04;101066.59;5044437;28;45492;-64
2023/05/04 02:57:24;;;;;;;;;13.25;12.25;;;;;16.97;43.92;101067.50;5045197;28;45316;-64
2023/05/04 02:59:50;;;;;;;;;10.50;9.25;;;;;16.97;43.93;101077.25;5051397;28;45327;-64
2023/05/04 03:02:15;;;;;;;;;10.00;9.25;;;;;16.96;44.29;101067.56;5045103;28;45340;-64
2023/05/04 03:04:41;;;;;;;;;11.00;11.00;;;;;16.90;44.05;101066.81;5041900;28;50941;-64
2023/05/04 03:07:07;;;;;;;;;11.25;11.25;;;;;16.90;44.12;101072.13;5042083;28;45710;-64
2023/05/04 03:09:32;;;;;;;;;13.50;12.50;;;;;16.88;44.38;101065.16;5041967;28;45519;-64
2023/05/04 03:11:57;;;;;;;;;13.75;12.25;;;;;16.84;44.09;101059.09;5053714;28;50232;-64
2023/05/04 03:14:23;;;;;;;;;13.00;13.00;;;;;16.85;44.41;101057.28;5051705;28;45363;-64
2023/05/04 03:16:48;;;;;;;;;12.00;10.75;;;;;16.82;44.44;101054.75;5041812;28;45342;-64
2023/05/04 03:19:17;;;;;;;;;15.25;13.50;;;;;16.80;44.17;101054.78;5041866;28;45261;-64
2023/05/04 03:21:43;;;;;;;;;15.50;13.75;;;;;16.77;44.22;101049.59;5058704;28;46330;-64
2023/05/04 03:24:08;;;;;;;;;19.75;13.75;;;;;16.75;44.49;101043.47;5061728;28;45302;-64
2023/05/04 03:26:33;;;;;;;;;16.50;13.50;;;;;16.72;44.32;101039.13;5040435;28;45563;-64
2023/05/04 03:28:59;;;;;;;;;14.00;13.00;;;;;16.70;44.71;101032.16;5041449;28;45439;-64
2023/05/04 03:31:24;;;;;;;;;12.00;11.75;;;;;16.70;44.50;101045.41;5023545;28;47204;-64
2023/05/04 03:33:50;;;;;;;;;15.25;10.75;;;;;16.64;44.46;101038.56;5041490;28;45445;-64
2023/05/04 03:36:15;;;;;;;;;11.25;10.75;;;;;16.66;44.56;101046.44;5041729;28;45344;-64
2023/05/04 03:38:41;;;;;;;;;12.75;12.75;;;;;16.62;44.72;101037.72;5041530;28;45329;-64
2023/05/04 03:41:06;;;;;;;;;11.50;10.25;;;;;16.60;44.24;101031.59;5041219;28;46548;-64
2023/05/04 03:43:31;;;;;;;;;10.00;10.00;;;;;16.60;44.55;101036.91;5041284;28;45433;-64
2023/05/04 03:45:56;;;;;;;;;17.00;13.25;;;;;16.57;44.77;101031.72;5041482;28;45426;-64
2023/05/04 03:48:22;;;;;;;;;8.25;7.00;;;;;16.57;44.77;101032.56;5023436;28;45317;-64
2023/05/04 03:50:47;;;;;;;;;11.00;11.00;;;;;16.57;44.59;101032.56;5040984;28;52807;-64
2023/05/04 03:53:12;;;;;;;;;14.00;11.75;;;;;16.56;44.61;101032.63;5038736;28;47087;-64
2023/05/04 03:55:38;;;;;;;;;13.50;13.50;;;;;16.53;44.58;101030.94;5045170;28;45464;-64
2023/05/04 03:58:03;;;;;;;;;15.50;13.50;;;;;16.50;44.76;101041.69;5023013;28;45581;-64
2023/05/04 04:00:28;;;;;;;;;12.50;12.50;;;;;16.49;44.82;101036.41;5052721;28;45255;-64
2023/05/04 04:02:54;;;;;;;;;13.25;12.25;;;;;16.51;44.78;101045.19;5023421;28;45265;-64
2023/05/04 04:05:20;;;;;;;;;13.00;12.50;;;;;16.49;44.76;101041.72;5023297;28;45502;-64
2023/05/04 04:07:45;;;;;;;;;17.00;14.25;;;;;16.48;45.10;101038.19;5006886;28;45432;-64
2023/05/04 04:10:10;;;;;;;;;15.75;12.00;;;;;16.47;45.11;101030.31;5040676;28;46165;-64
2023/05/04 04:12:36;;;;;;;;;11.50;10.00;;;;;16.44;44.77;101019.78;5041187;28;45402;-64
2023/05/04 04:15:01;;;;;;;;;13.00;12.50;;;;;16.45;44.94;101027.69;5040805;28;45487;-64
2023/05/04 04:17:26;;;;;;;;;12.75;12.00;;;;;16.44;45.08;101025.09;5040996;28;45262;-64
2023/05/04 04:19:52;;;;;;;;;13.75;11.75;;;;;16.37;45.01;101019.13;5042185;28;45264;-64
2023/05/04 04:22:17;;;;;;;;;13.25;13.25;;;;;16.37;45.27;101016.50;5059163;28;61506;-64
2023/05/04 04:24:42;;;;;;;;;13.75;13.50;;;;;16.36;45.18;101010.34;5060905;28;45446;-64
2023/05/04 04:27:08;;;;;;;;;12.75;11.25;;;;;16.37;45.38;101014.69;5042863;28;45470;-63
2023/05/04 04:29:34;;;;;;;;;11.50;11.25;;;;;16.31;45.25;101012.25;5045795;28;45391;-64
2023/05/04 04:32:00;;;;;;;;;15.25;11.00;;;;;16.33;45.13;101020.16;5040831;28;45435;-64
2023/05/04 04:34:26;;;;;;;;;14.50;13.00;;;;;16.29;45.01;101010.56;5040613;28;45362;-63
2023/05/04 04:36:51;;;;;;;;;14.25;11.75;;;;;16.27;45.34;101007.97;5040594;28;45547;-64
2023/05/04 04:39:16;;;;;;;;;10.75;10.25;;;;;16.25;45.02;101010.69;5040305;28;45439;-63
2023/05/04 04:41:42;;;;;;;;;17.25;13.50;;;;;16.26;45.27;101014.19;5040755;28;45443;-62
2023/05/04 04:44:07;;;;;;;;;17.25;14.25;;;;;16.21;45.53;101003.75;5022474;28;45356;-63
2023/05/04 04:46:33;;;;;;;;;15.50;14.50;;;;;16.19;45.29;100994.97;5040715;28;45679;-63
2023/05/04 04:48:58;;;;;;;;;11.50;11.25;;;;;16.18;45.44;100995.88;5040280;28;45301;-62
2023/05/04 04:51:23;;;;;;;;;13.50;11.50;;;;;16.16;45.25;100997.75;5040602;28;45244;-63
2023/05/04 04:53:50;;;;;;;;;11.50;11.25;;;;;16.13;45.43;100996.97;5022570;28;45459;-63
2023/05/04 04:56:17;;;;;;;;;16.75;14.00;;;;;16.15;45.38;100996.00;5039722;28;45190;-62
2023/05/04 04:58:43;;;;;;;;;5.50;5.00;;;;;16.12;45.63;100996.09;5022082;28;47112;-63
2023/05/04 05:01:08;;;;;;;;;15.50;15.50;;;;;16.11;45.62;100990.84;5034382;28;45284;-64
2023/05/04 05:03:33;;;;;;;;;14.25;13.00;;;;;16.09;45.45;100988.25;5040394;28;45556;-63
2023/05/04 05:06:00;;;;;;;;;16.00;13.75;;;;;16.07;45.40;100979.47;5040187;28;45477;-63
2023/05/04 05:08:26;;;;;;;;;17.00;15.25;;;;;16.05;45.46;100978.66;5040189;28;46806;-65
2023/05/04 05:10:51;;;;;;;;;12.25;12.25;;;;;16.04;45.57;100984.91;5039949;28;45345;-63
2023/05/04 05:13:16;;;;;;;;;12.75;11.50;;;;;16.01;45.84;100977.03;5047072;28;45487;-64
2023/05/04 05:15:42;;;;;;;;;15.00;15.00;;;;;15.95;45.85;100970.16;5039833;28;45471;-64
2023/05/04 05:18:07;;;;;;;;;15.50;12.75;;;;;15.95;45.64;100963.97;5005391;28;48609;-63
2023/05/04 05:20:33;;;;;;;;;13.00;10.75;;;;;15.91;45.84;100966.75;5047277;28;45483;-64
2023/05/04 05:22:59;;;;;;;;;13.00;12.75;;;;;15.88;45.92;100965.97;5060171;28;45371;-63
2023/05/04 05:25:24;;;;;;;;;16.00;14.75;;;;;15.82;46.01;100952.91;5059949;28;45463;-63
2023/05/04 05:27:50;;;;;;;;;12.00;11.00;;;;;15.88;45.89;100968.63;5059882;28;46008;-64
2023/05/04 05:30:15;;;;;;;;;14.25;14.25;;;;;15.86;45.92;100973.09;5059876;28;45625;-64
2023/05/04 05:32:41;;;;;;;;;12.50;11.50;;;;;15.77;45.70;100960.97;5059855;28;45301;-63
2023/05/04 05:35:08;;;;;;;;;15.25;14.00;;;;;15.82;46.10;100971.47;5041611;28;45349;-63
2023/05/04 05:37:33;;;;;;;;;16.25;16.25;;;;;15.81;46.17;100970.59;5059626;28;47162;-64
2023/05/04 05:39:58;;;;;;;;;14.00;14.00;;;;;15.80;46.30;100970.59;5041552;28;45375;-63
2023/05/04 05:42:24;;;;;;;;;13.25;13.25;;;;;15.81;45.87;100973.22;5028426;28;45343;-63
2023/05/04 05:44:49;;;;;;;;;10.75;10.50;;;;;15.79;46.12;100975.06;5041642;28;45538;-63
2023/05/04 05:47:15;;;;;;;;;15.75;14.00;;;;;15.81;46.13;100988.25;5059512;28;46108;-63
2023/05/04 05:49:41;;;;;;;;;19.25;15.25;;;;;15.84;46.18;100999.66;5059713;28;45328;-64
2023/05/04 05:52:06;;;;;;;;;17.33;14.00;;;;;15.82;46.12;100998.81;5041617;28;45341;-64
2023/05/04 05:54:33;;;;;;;;;13.00;12.25;;;;;15.86;46.32;101008.44;5059738;28;45377;-64
2023/05/04 05:56:59;;;;;;;;;16.25;14.75;;;;;15.87;46.31;101007.50;5059405;28;45428;-63
2023/05/04 05:59:25;;;;;;;;;16.25;15.25;;;;;15.88;45.99;100995.13;5059339;28;45294;-64
2023/05/04 06:01:50;;;;;;;;;13.75;12.25;;;;;15.91;46.37;101005.59;5045056;28;45238;-64
2023/05/04 06:04:15;;;;;;;;;13.00;13.00;;;;;15.93;46.26;101012.59;5039490;28;45272;-64
2023/05/04 06:06:41;;;;;;;;;14.75;13.00;;;;;15.95;45.83;101006.38;5038996;28;53777;-63
2023/05/04 06:09:06;;;;;;;;;14.00;13.50;;;;;15.96;46.10;100998.41;5021379;28;45256;-64
2023/05/04 06:11:32;;;;;;;;;15.00;15.00;;;;;15.99;46.36;101008.88;5045748;28;45197;-64
2023/05/04 06:13:57;;;;;;;;;13.00;12.00;;;;;16.01;46.13;100998.22;5038922;28;47588;-64
2023/05/04 06:16:22;;;;;;;;;15.50;13.75;;;;;15.90;46.10;100978.25;5046715;22;46202;-64
2023/05/04 06:18:48;;;;;;;;;16.75;14.75;;;;;16.07;46.18;100995.38;5033704;28;45552;-64
2023/05/04 06:21:13;;;;;;;;;16.75;13.25;;;;;16.08;46.19;100995.31;5039112;28;52116;-64
2023/05/04 06:23:39;;;;;;;;;16.00;15.50;;;;;16.10;46.19;100982.03;5034475;28;45548;-64
2023/05/04 06:26:06;;;;;;;;;15.00;12.00;;;;;16.10;46.17;100984.69;5027285;28;47038;-64
2023/05/04 06:28:32;;;;;;;;;13.00;11.75;;;;;16.10;46.05;100979.38;4999651;28;45257;-64
2023/05/04 06:30:57;;;;;;;;;15.00;13.75;;;;;16.16;45.98;100973.88;4999324;28;45420;-64
2023/05/04 06:33:23;;;;;;;;;13.25;12.75;;;;;16.17;46.42;100964.13;4999285;28;45227;-64
2023/05/04 06:35:48;;;;;;;;;17.00;14.00;;;;;16.07;46.75;100956.50;4999194;28;45670;-64
2023/05/04 06:38:13;;;;;;;;;12.25;10.25;;;;;16.19;46.24;100973.75;4998798;28;52444;-64
2023/05/04 06:40:39;;;;;;;;;13.75;12.50;;;;;16.18;46.29;100972.03;4999266;28;45217;-64
2023/05/04 06:43:04;;;;;;;;;13.00;12.00;;;;;16.22;46.65;100978.09;5014288;28;45958;-64
2023/05/04 06:45:29;;;;;;;;;13.25;11.00;;;;;16.22;46.59;100978.94;4999327;28;46143;-64
2023/05/04 06:47:55;;;;;;;;;13.50;12.25;;;;;16.24;46.58;100979.78;5002192;28;46828;-64
2023/05/04 06:50:22;;;;;;;;;14.00;14.00;;;;;16.29;46.62;100986.69;5017821;28;45743;-64
2023/05/04 06:52:48;;;;;;;;;15.50;13.25;;;;;16.29;46.28;100987.59;5017534;28;45736;-64
2023/05/04 06:55:13;;;;;;;;;16.75;13.50;;;;;16.33;46.47;100991.84;5002162;28;45376;-64
2023/05/04 06:57:38;;;;;;;;;15.50;14.00;;;;;16.38;46.73;100989.06;5002145;28;45249;-64
2023/05/04 07:00:05;;;;;;;;;13.00;11.50;;;;;16.39;46.46;100986.34;5013608;28;45381;-64
2023/05/04 07:02:30;;;;;;;;;13.25;12.25;;;;;16.38;46.44;100975.78;5000749;28;45781;-64
2023/05/04 07:04:56;;;;;;;;;17.50;12.25;;;;;16.44;46.36;100967.63;5002119;28;45281;-64
2023/05/04 07:07:22;;;;;;;;;14.25;12.75;;;;;16.47;46.46;100954.25;5001887;28;45316;-64
2023/05/04 07:09:47;;;;;;;;;14.75;12.75;;;;;16.51;46.59;100957.66;5002015;28;45293;-64
2023/05/04 07:12:13;;;;;;;;;19.00;14.75;;;;;16.55;46.81;100981.38;5001828;28;45321;-64
2023/05/04 07:14:38;;;;;;;;;12.75;12.00;;;;;16.56;46.46;100983.13;5001836;28;46051;-64
2023/05/04 07:17:04;;;;;;;;;15.25;12.00;;;;;16.60;46.57;100964.41;5000407;28;45317;-64
2023/05/04 07:19:29;;;;;;;;;15.50;13.50;;;;;16.64;46.72;100961.59;5025581;28;45428;-64
2023/05/04 07:21:55;;;;;;;;;12.25;11.25;;;;;16.71;46.79;100965.75;5020113;28;45378;-64
2023/05/04 07:24:20;;;;;;;;;13.00;11.75;;;;;16.76;46.93;100959.44;5021700;28;45327;-64
2023/05/04 07:26:46;;;;;;;;;14.50;13.50;;;;;16.76;46.52;100954.97;5021702;28;45224;-64
2023/05/04 07:29:11;;;;;;;;;15.00;12.50;;;;;16.82;46.93;100960.06;5021626;28;45229;-64
2023/05/04 07:31:37;;;;;;;;;16.50;13.00;;;;;16.86;47.00;100974.94;5021563;28;45249;-64
2023/05/04 07:34:02;;;;;;;;;13.00;12.00;;;;;16.92;46.94;100983.63;5021689;28;46051;-64
2023/05/04 07:36:28;;;;;;;;;12.75;11.00;;;;;16.92;46.68;100984.50;5021422;28;45432;-64
2023/05/04 07:38:53;;;;;;;;;13.25;10.75;;;;;17.00;46.74;100994.84;5021808;28;45268;-64
2023/05/04 07:41:19;;;;;;;;;13.75;12.50;;;;;17.01;46.87;100978.00;5021212;28;45308;-64
2023/05/04 07:43:45;;;;;;;;;11.00;11.00;;;;;17.04;46.70;100970.78;5021261;28;45416;-64
2023/05/04 07:46:11;;;;;;;;;11.50;11.00;;;;;17.13;47.05;100968.69;5021339;28;45421;-64
2023/05/04 07:48:36;;;;;;;;;9.50;9.50;;;;;17.15;47.13;100973.03;5021526;28;45381;-64
2023/05/04 07:51:01;;;;;;;;;14.75;13.75;;;;;17.17;46.89;100963.22;5021108;28;45444;-64
2023/05/04 07:53:27;;;;;;;;;13.75;13.75;;;;;17.29;47.10;100975.16;5021008;28;46647;-64
2023/05/04 07:55:59;;;;;;;;;12.00;11.50;;;;;17.33;47.21;100974.13;5019789;28;45331;-64
2023/05/04 07:58:25;;;;;;;;;10.50;10.50;;;;;17.36;47.20;100968.69;5021013;28;45329;-64
2023/05/04 08:00:50;;;;;;;;;12.50;12.25;;;;;17.45;47.07;100971.91;5015046;28;45330;-64
2023/05/04 08:03:15;;;;;;;;;13.75;11.50;;;;;17.50;46.97;100976.09;5000928;28;56650;-64
2023/05/04 08:05:41;;;;;;;;;12.00;9.75;;;;;17.57;47.20;100971.41;5001318;28;45513;-64
2023/05/04 08:08:07;;;;;;;;;13.00;12.25;;;;;17.58;46.99;100962.50;5001224;28;45523;-63
2023/05/04 08:10:35;;;;;;;;;13.50;12.00;;;;;17.64;47.35;100956.94;4999879;28;45207;-64
2023/05/04 08:13:01;;;;;;;;;14.75;11.75;;;;;17.67;47.08;100966.59;5000933;28;46237;-64
2023/05/04 08:15:26;;;;;;;;;11.25;10.00;;;;;17.74;47.08;100967.22;5000559;28;45455;-63
2023/05/04 08:17:52;;;;;;;;;13.00;13.00;;;;;17.81;46.95;100972.22;5001082;28;45218;-63
2023/05/04 08:20:17;;;;;;;;;17.50;12.50;;;;;17.86;47.26;100961.38;5015675;28;45469;-63
2023/05/04 08:22:42;;;;;;;;;15.25;9.50;;;;;17.91;46.88;100966.53;5009001;28;46253;-63
2023/05/04 08:25:08;;;;;;;;;14.25;11.50;;;;;17.92;46.84;100965.59;5000779;28;45397;-63
2023/05/04 08:27:33;;;;;;;;;11.75;11.50;;;;;18.00;47.35;100968.84;5016368;28;45405;-63
2023/05/04 08:29:59;;;;;;;;;12.50;10.75;;;;;18.00;47.18;100964.38;5000629;28;45392;-63
2023/05/04 08:32:24;;;;;;;;;16.00;13.25;;;;;18.02;47.62;100964.31;5000715;28;45314;-63
2023/05/04 08:34:50;;;;;;;;;11.50;10.75;;;;;18.04;47.12;100970.44;5000911;28;45340;-63
2023/05/04 08:37:16;;;;;;;;;17.00;14.00;;;;;18.12;47.43;100965.66;5001017;28;45441;-63
2023/05/04 08:39:41;;;;;;;;;12.25;12.00;;;;;18.18;47.17;100957.41;4999204;28;45956;-63
2023/05/04 08:42:06;;;;;;;;;15.00;13.50;;;;;18.26;47.35;100958.88;5000720;28;46277;-63
2023/05/04 08:44:33;;;;;;;;;12.75;11.75;;;;;18.30;46.99;100960.47;5000457;28;45441;-63
2023/05/04 08:47:02;;;;;;;;;14.00;12.75;;;;;18.29;47.09;100956.13;5000770;28;45298;-64
2023/05/04 08:49:29;;;;;;;;;11.00;10.50;;;;;18.39;47.08;100949.47;5000453;28;45521;-64
2023/05/04 08:51:54;;;;;;;;;15.25;13.50;;;;;18.44;46.95;100946.56;5000502;28;46192;-64
2023/05/04 08:54:21;;;;;;;;;17.00;14.50;;;;;18.47;47.34;100934.00;5000075;28;45302;-64
2023/05/04 08:56:47;;;;;;;;;13.00;11.00;;;;;18.52;47.46;100936.47;5000541;28;45523;-64
2023/05/04 08:59:20;;;;;;;;;12.75;11.25;;;;;18.57;47.53;100946.91;5004263;28;45419;-64
2023/05/04 09:01:50;;;;;;;;;10.75;10.50;;;;;18.60;47.25;100946.78;5007910;28;45456;-64
2023/05/04 09:04:17;;;;;;;;;14.00;12.75;;;;;18.66;47.05;100942.03;5000301;28;45265;-64
2023/05/04 09:06:42;;;;;;;;;12.75;12.75;;;;;18.69;47.44;100935.69;5000380;28;45237;-64
2023/05/04 09:09:09;;;;;;;;;13.50;12.25;;;;;18.71;47.25;100925.84;4999540;28;45356;-64
2023/05/04 09:11:34;;;;;;;;;17.75;13.75;;;;;18.76;47.56;100936.31;5015418;28;46082;-64
2023/05/04 09:13:59;;;;;;;;;10.00;10.00;;;;;18.84;47.30;100943.00;4999778;28;45449;-64
2023/05/04 09:16:33;;;;;;;;;13.75;12.00;;;;;18.88;47.46;100937.53;5000056;28;45448;-64
2023/05/04 09:18:59;;;;;;;;;14.00;13.25;;;;;18.90;47.54;100925.91;5019616;28;45956;-64
2023/05/04 09:21:29;;;;;;;;;13.75;11.00;;;;;18.97;47.58;100926.50;5033024;28;47137;-64
2023/05/04 09:23:54;;;;;;;;;14.25;13.50;;;;;19.01;47.52;100933.41;5018608;28;45499;-64
2023/05/04 09:26:29;;;;;;;;;15.00;11.50;;;;;19.03;47.54;100936.00;5034961;28;45794;-64
2023/05/04 09:28:55;;;;;;;;;13.50;11.50;;;;;19.09;47.52;100922.41;5018323;28;45556;-64
2023/05/04 09:31:22;;;;;;;;;13.00;13.00;;;;;19.16;47.31;100918.50;5019667;28;46122;-64
2023/05/04 09:33:47;;;;;;;;;12.50;11.25;;;;;19.20;47.54;100916.56;5019697;28;45294;-64
2023/05/04 09:36:23;;;;;;;;;15.75;13.50;;;;;19.26;46.98;100913.63;5019778;28;45471;-64
2023/05/04 09:38:49;;;;;;;;;13.00;12.25;;;;;19.35;47.10;100920.31;5019595;28;45274;-64
2023/05/04 09:41:14;;;;;;;;;12.75;10.75;;;;;19.44;47.07;100919.84;5019437;28;46198;-64
2023/05/04 09:43:41;;;;;;;;;12.25;12.00;;;;;19.48;47.56;100916.97;5019503;28;45427;-64
2023/05/04 09:46:15;;;;;;;;;11.00;10.25;;;;;19.58;47.25;100921.84;5035011;28;45425;-64
2023/05/04 09:48:50;;;;;;;;;10.75;9.50;;;;;19.64;47.36;100922.38;5019636;28;45273;-64
2023/05/04 09:51:20;;;;;;;;;10.75;10.75;;;;;19.72;47.61;100919.38;5019390;28;45353;-64
2023/05/04 09:53:47;;;;;;;;;13.75;12.25;;;;;19.78;46.94;100911.03;5019522;28;45252;-64
2023/05/04 09:56:28;;;;;;;;;12.00;10.50;;;;;19.87;47.06;100903.56;5018324;28;45270;-64
2023/05/04 09:58:57;;;;;;;;;11.00;10.00;;;;;19.93;47.53;100897.91;5019072;28;45524;-64
2023/05/04 10:01:26;;;;;;;;;12.00;11.00;;;;;20.02;47.41;100916.09;5008580;28;46320;-64
2023/05/04 10:03:52;;;;;;;;;8.25;8.00;;;;;20.07;46.91;100908.72;4999554;28;45309;-64
2023/05/04 10:06:18;;;;;;;;;10.25;9.25;;;;;20.18;47.23;100912.66;4999714;28;45175;-64
2023/05/04 10:08:44;;;;;;;;;13.25;11.25;;;;;20.28;46.64;100912.09;4999554;28;45403;-64
2023/05/04 10:11:11;;;;;;;;;10.75;10.75;;;;;20.38;46.80;100912.47;5014635;28;47507;-64
2023/05/04 10:13:36;;;;;;;;;14.00;10.00;;;;;20.49;47.09;100919.94;4999274;28;45217;-64
2023/05/04 10:16:30;;;;;;;;;12.00;10.50;;;;;20.60;46.76;100908.66;4999495;28;45395;-64
2023/05/04 10:19:01;;;;;;;;;9.00;9.00;;;;;20.71;46.99;100911.66;5003132;28;45223;-64
2023/05/04 10:21:42;;;;;;;;;10.25;10.00;;;;;20.82;46.58;100918.19;5033943;28;47558;-64
2023/05/04 10:24:46;;;;;;;;;9.00;9.00;;;;;20.90;46.46;100910.66;5022595;28;45449;-64
2023/05/04 10:27:15;;;;;;;;;8.75;8.75;;;;;21.03;46.30;100914.38;5021471;28;45406;-65
2023/05/04 10:29:41;;;;;;;;;11.25;11.00;;;;;21.14;46.35;100907.56;5022358;28;45348;-64
2023/05/04 10:32:21;;;;;;;;;9.25;9.25;;;;;21.31;46.68;100915.50;5022412;28;46202;-64
2023/05/04 10:34:46;;;;;;;;;12.50;9.50;;;;;21.39;46.55;100902.53;5022566;28;45225;-64
2023/05/04 10:37:16;;;;;;;;;9.00;9.00;;;;;21.53;46.03;100906.25;5022528;28;45357;-64
2023/05/04 10:39:53;;;;;;;;;16.25;14.75;;;;;21.62;46.47;100889.69;5022341;28;45345;-64
2023/05/04 10:42:19;;;;;;;;;9.75;9.00;;;;;21.76;46.40;100894.25;5037348;28;47153;-64
2023/05/04 10:44:54;;;;;;;;;10.25;9.50;;;;;21.90;45.90;100877.38;5022271;28;45250;-64
2023/05/04 10:47:34;;;;;;;;;8.25;8.25;;;;;22.02;45.79;100873.94;5022284;28;45245;-64
2023/05/04 10:50:08;;;;;;;;;10.50;8.75;;;;;22.14;45.73;100861.66;5022369;28;45427;-64
2023/05/04 10:52:52;;;;;;;;;10.00;9.00;;;;;22.36;45.84;100873.72;5021897;28;45461;-64
2023/05/04 10:55:18;;;;;;;;;9.50;8.75;;;;;22.49;45.61;100882.75;5037146;28;45257;-65
2023/05/04 10:57:52;;;;;;;;;8.50;8.50;;;;;22.63;45.55;100887.25;5022321;28;45281;-65
2023/05/04 11:00:19;;;;;;;;;8.25;7.75;;;;;22.80;45.36;100896.03;5019096;28;45526;-65
2023/05/04 11:02:48;;;;;;;;;8.75;7.75;;;;;22.95;45.06;100895.03;5002113;28;46237;-65
2023/05/04 11:05:18;;;;;;;;;10.75;8.75;;;;;23.05;45.30;100889.97;5002186;28;45243;-65
2023/05/04 11:07:44;;;;;;;;;10.00;10.00;;;;;23.31;44.93;100904.38;5002118;28;45289;-65
2023/05/04 11:10:24;;;;;;;;;10.25;10.25;;;;;23.45;44.83;100891.91;5000586;28;45356;-65
2023/05/04 11:12:49;;;;;;;;;12.00;10.50;;;;;23.60;44.78;100898.91;5002055;28;46395;-65